Midway, Arkansas
Current Conditions -  °F | °C
As of 1:53 PM on Saturday 25 Oct 2014 (Local Time) from KBPK Reporting Station
Clear Clear  
Wind Chill: 81°   Ceiling: Unl
Heat Index: 82°   Visibility: 8mi
Dew Point: 62°   Wind: 6mph
Humidity: 52%   Direction: NA
Pressure: 30.04"   Gusts: NA
Location:  36.38°N, 92.46°W
Report Text: KBPK 251853Z AUTO VRB05KT 8SM CLR 27/17 A3004 RMK AO2 SLP164 T02720167
Loading
Personal Weather Stations






























Interactive Weather Map
Tropical Storm Tracking
New forecast layout! Learn more

10-Day Weather Forecast

Advertisements
Track Severe Weather on mobile